Time;durP1;ratioP1;P1;durP2;ratioP2;P2;SDS_P1;SDS_P2;PMS_P1;PMS_P2;Temp;Humidity;BMP_temperature;BMP_pressure;BME280_temperature;BME280_humidity;BME280_pressure;Samples;Min_cycle;Max_cycle;Signal;HPM_P1;HPM_P2
2021/03/17 00:00:29;;;;;;;0.70;0.70;;;;;;;4.32;62.36;99521.78;4393335;32;34239;-76
2021/03/17 00:03:15;;;;;;;0.30;0.30;;;;;;;3.64;64.73;99523.25;4394416;32;33782;-76
2021/03/17 00:06:01;;;;;;;1.52;1.42;;;;;;;4.21;62.83;99525.22;4408058;32;35261;-76
2021/03/17 00:08:47;;;;;;;0.73;0.73;;;;;;;3.90;63.95;99536.28;4416210;32;34025;-77
2021/03/17 00:11:33;;;;;;;1.35;0.98;;;;;;;4.08;63.52;99526.19;4403345;32;33384;-76
2021/03/17 00:14:18;;;;;;;3.87;1.85;;;;;;;3.91;64.35;99521.31;4394964;32;34343;-77
2021/03/17 00:17:05;;;;;;;2.55;1.27;;;;;;;4.24;63.05;99532.06;4414547;32;35345;-76
2021/03/17 00:19:50;;;;;;;1.70;1.60;;;;;;;3.95;63.74;99528.87;4414119;32;34279;-76
2021/03/17 00:22:37;;;;;;;6.68;1.10;;;;;;;3.96;64.01;99524.47;4415417;32;33370;-75
2021/03/17 00:25:24;;;;;;;0.30;0.20;;;;;;;3.61;65.33;99520.84;4419146;32;33233;-77
2021/03/17 00:28:10;;;;;;;2.65;0.68;;;;;;;3.71;64.73;99514.81;4402425;32;35913;-76
2021/03/17 00:30:55;;;;;;;1.83;1.73;;;;;;;3.94;64.40;99515.81;4402434;32;34845;-77
2021/03/17 00:33:41;;;;;;;3.20;1.95;;;;;;;3.88;64.64;99516.28;4390295;32;33547;-77
2021/03/17 00:36:28;;;;;;;0.80;0.50;;;;;;;4.08;63.32;99513.87;4404701;32;33694;-76
2021/03/17 00:39:14;;;;;;;3.92;1.48;;;;;;;3.91;63.91;99500.25;4417335;32;35719;-77
2021/03/17 00:42:00;;;;;;;0.62;0.62;;;;;;;4.20;63.18;99507.72;4408594;32;34379;-76
2021/03/17 00:44:45;;;;;;;0.35;0.35;;;;;;;3.91;64.01;99513.41;4409905;32;33936;-76
2021/03/17 00:47:32;;;;;;;2.62;1.17;;;;;;;4.11;63.51;99515.44;4404683;32;33425;-76
2021/03/17 00:50:01;;;;;;;1.80;1.70;;;;;;;3.63;65.12;99504.00;4416310;32;34531;-77
2021/03/17 00:52:28;;;;;;;2.12;1.42;;;;;;;3.48;65.52;99510.34;4402263;32;34195;-77
2021/03/17 00:55:07;;;;;;;0.57;0.57;;;;;;;3.89;64.38;99510.06;4392377;32;33253;-77
2021/03/17 00:57:37;;;;;;;1.00;0.82;;;;;;;3.90;64.20;99499.44;4401944;32;34167;-77
2021/03/17 01:00:07;;;;;;;1.08;1.08;;;;;;;3.50;65.06;99497.09;4392626;32;35740;-77
2021/03/17 01:02:35;;;;;;;2.33;1.23;;;;;;;3.29;66.39;99494.16;4415463;32;33835;-76
2021/03/17 01:05:03;;;;;;;1.67;1.58;;;;;;;3.45;65.64;99500.03;4416063;32;32677;-76
2021/03/17 01:07:30;;;;;;;1.73;1.23;;;;;;;3.45;65.79;99488.66;4389801;32;34600;-77
2021/03/17 01:09:58;;;;;;;2.30;1.52;;;;;;;3.39;65.88;99502.25;4401920;32;34376;-76
2021/03/17 01:12:25;;;;;;;2.20;1.60;;;;;;;3.58;64.99;99503.47;4402152;32;33894;-77
2021/03/17 01:14:52;;;;;;;1.20;1.13;;;;;;;3.06;67.25;99502.78;4430139;32;33264;-77
2021/03/17 01:17:20;;;;;;;1.75;0.93;;;;;;;2.92;67.91;99502.03;4418618;32;33605;-76
2021/03/17 01:19:47;;;;;;;0.90;0.90;;;;;;;3.00;67.83;99497.09;4389383;32;34991;-76
2021/03/17 01:22:14;;;;;;;1.23;1.12;;;;;;;3.18;66.96;99499.31;4427757;32;34147;-76
2021/03/17 01:24:41;;;;;;;0.95;0.93;;;;;;;3.04;67.47;99496.78;4406270;32;33579;-76
2021/03/17 01:27:09;;;;;;;2.60;2.40;;;;;;;3.08;67.59;99494.78;4403237;32;32951;-77
2021/03/17 01:29:35;;;;;;;0.80;0.80;;;;;;;3.21;66.97;99493.84;4417555;32;34854;-77
2021/03/17 01:32:03;;;;;;;6.80;1.48;;;;;;;3.29;66.36;99490.69;4418520;32;34261;-76
2021/03/17 01:34:31;;;;;;;4.12;2.20;;;;;;;3.53;65.67;99492.47;4402592;32;32959;-76
2021/03/17 01:36:58;;;;;;;2.62;2.42;;;;;;;3.46;65.88;99491.22;4415940;32;33666;-76
2021/03/17 01:39:26;;;;;;;1.48;1.37;;;;;;;3.22;66.57;99485.00;4404705;32;34479;-76
2021/03/17 01:41:53;;;;;;;2.85;0.82;;;;;;;3.14;67.23;99478.62;4422601;32;34162;-76
2021/03/17 01:44:20;;;;;;;2.63;1.00;;;;;;;3.68;65.23;99483.47;4416458;32;33128;-77
2021/03/17 01:46:47;;;;;;;3.25;1.48;;;;;;;3.05;67.41;99489.75;4416872;32;35123;-76
2021/03/17 01:49:15;;;;;;;1.37;1.27;;;;;;;3.05;67.34;99487.97;4427539;32;34842;-77
2021/03/17 01:51:42;;;;;;;1.63;0.57;;;;;;;3.32;66.83;99477.34;4402307;32;34018;-77
2021/03/17 01:54:10;;;;;;;;;;;;;;;3.21;66.79;99477.25;4402526;32;33235;-76
2021/03/17 01:56:37;;;;;;;1.65;1.55;;;;;;;3.41;66.55;99482.78;4403496;32;34582;-76
2021/03/17 01:59:04;;;;;;;1.07;1.07;;;;;;;3.26;67.14;99473.34;4401586;32;36464;-77
2021/03/17 02:01:32;;;;;;;1.95;1.70;;;;;;;3.23;67.19;99478.81;4401817;32;34023;-77
2021/03/17 02:04:01;;;;;;;1.23;0.55;;;;;;;3.31;66.76;99468.59;4401498;32;35517;-76
2021/03/17 02:06:29;;;;;;;0.93;0.93;;;;;;;3.63;65.74;99474.22;4415428;32;34350;-76
2021/03/17 02:08:56;;;;;;;1.55;1.45;;;;;;;3.61;65.63;99482.22;4389286;32;34839;-76
2021/03/17 02:11:23;;;;;;;0.57;0.57;;;;;;;3.91;64.52;99477.41;4420001;32;33935;-76
2021/03/17 02:14:00;;;;;;;1.67;0.98;;;;;;;4.00;64.15;99473.28;4405698;32;33131;-76
2021/03/17 02:16:31;;;;;;;0.37;0.37;;;;;;;3.85;64.85;99474.38;4406213;32;33752;-76
2021/03/17 02:19:20;;;;;;;2.00;1.35;;;;;;;3.71;65.35;99475.34;4393040;32;34168;-77
2021/03/17 02:22:06;;;;;;;1.00;0.62;;;;;;;3.59;66.14;99475.41;4401825;32;34575;-76
2021/03/17 02:25:11;;;;;;;1.00;1.00;;;;;;;3.41;66.74;99479.34;4415297;32;33214;-76
2021/03/17 02:27:54;;;;;;;1.15;1.10;;;;;;;3.65;66.15;99482.84;4415489;32;34556;-77
2021/03/17 02:30:46;;;;;;;1.27;1.12;;;;;;;3.60;66.53;99471.81;4401299;32;34319;-76
2021/03/17 02:33:35;;;;;;;0.73;0.73;;;;;;;3.29;67.52;99473.13;4405772;32;34354;-77
2021/03/17 02:36:06;;;;;;;2.00;1.37;;;;;;;3.27;67.78;99474.19;4429091;32;33140;-76
2021/03/17 02:38:36;;;;;;;1.65;1.48;;;;;;;3.62;66.55;99467.28;4405617;32;33041;-76
2021/03/17 02:41:05;;;;;;;0.55;0.55;;;;;;;3.54;66.29;99461.72;4401739;32;36374;-76
2021/03/17 02:43:32;;;;;;;;;;;;;;;3.34;67.37;99465.75;4391717;32;33153;-76
2021/03/17 02:46:03;;;;;;;1.00;1.00;;;;;;;3.10;68.33;99466.63;4403981;32;34921;-76
2021/03/17 02:48:39;;;;;;;1.48;1.37;;;;;;;3.04;68.58;99459.19;4402267;32;33679;-76
2021/03/17 02:51:39;;;;;;;0.75;0.73;;;;;;;3.12;68.36;99459.50;4407512;32;34565;-75
2021/03/17 02:54:09;;;;;;;1.92;1.77;;;;;;;2.77;69.50;99461.06;4401691;32;34073;-76
2021/03/17 02:56:43;;;;;;;0.73;0.70;;;;;;;3.28;67.54;99458.31;4400850;32;33207;-76
2021/03/17 02:59:15;;;;;;;2.33;1.40;;;;;;;3.07;67.99;99459.81;4401910;32;34448;-77
2021/03/17 03:01:43;;;;;;;0.43;0.43;;;;;;;3.19;67.68;99466.84;4431533;32;35286;-76
2021/03/17 03:04:12;;;;;;;0.75;0.75;;;;;;;3.18;67.59;99464.31;4403160;32;34223;-77
2021/03/17 03:06:41;;;;;;;1.85;1.65;;;;;;;3.26;67.31;99462.00;4408642;32;33863;-76
2021/03/17 03:09:10;;;;;;;2.55;1.73;;;;;;;3.44;67.04;99466.81;4402268;32;33212;-75
2021/03/17 03:11:38;;;;;;;2.70;1.45;;;;;;;3.51;66.63;99461.97;4389684;32;33419;-76
2021/03/17 03:14:06;;;;;;;1.73;1.62;;;;;;;3.56;66.16;99468.56;4401725;32;34414;-76
2021/03/17 03:16:34;;;;;;;0.95;0.95;;;;;;;3.46;66.90;99464.06;4401582;32;33166;-75
2021/03/17 03:19:07;;;;;;;1.12;1.10;;;;;;;3.39;67.33;99463.66;4402375;32;33638;-77
2021/03/17 03:21:35;;;;;;;0.95;0.95;;;;;;;3.33;67.50;99463.25;4401639;32;35182;-76
2021/03/17 03:24:02;;;;;;;0.70;0.70;;;;;;;3.44;67.27;99460.69;4406385;32;33846;-76
2021/03/17 03:26:31;;;;;;;;;;;;;;;3.21;68.07;99464.12;4407336;32;34046;-76
2021/03/17 03:28:59;;;;;;;1.35;1.35;;;;;;;3.33;67.56;99464.06;4407813;32;33224;-76
2021/03/17 03:31:27;;;;;;;2.00;1.80;;;;;;;3.63;66.91;99461.09;4402043;32;34800;-76
2021/03/17 03:33:55;;;;;;;1.17;1.17;;;;;;;3.16;68.27;99460.94;4417718;32;34186;-76
2021/03/17 03:36:24;;;;;;;1.40;0.82;;;;;;;3.13;68.68;99467.25;4415007;32;34216;-76
2021/03/17 03:38:51;;;;;;;1.42;1.42;;;;;;;3.04;69.20;99467.87;4403484;32;34707;-76
2021/03/17 03:41:18;;;;;;;0.68;0.68;;;;;;;3.02;69.33;99463.66;4420224;32;34764;-76
2021/03/17 03:43:46;;;;;;;2.27;1.33;;;;;;;2.98;69.18;99465.69;4401281;32;34792;-76
2021/03/17 03:46:35;;;;;;;1.23;1.20;;;;;;;3.12;69.19;99464.75;4388548;32;34735;-76
2021/03/17 03:49:04;;;;;;;2.05;1.75;;;;;;;3.27;68.62;99468.94;4401500;32;33586;-76
2021/03/17 03:51:36;;;;;;;0.75;0.75;;;;;;;3.11;69.19;99474.41;4401581;32;35379;-76
2021/03/17 03:54:07;;;;;;;1.85;1.75;;;;;;;3.36;68.24;99465.66;4414957;32;34962;-77
2021/03/17 03:56:41;;;;;;;1.65;0.90;;;;;;;3.37;67.95;99473.44;4400982;32;33638;-76
2021/03/17 03:59:15;;;;;;;2.10;1.87;;;;;;;3.52;67.27;99480.25;4388561;32;33909;-76
2021/03/17 04:01:44;;;;;;;1.00;0.90;;;;;;;3.80;66.26;99469.44;4400658;32;34840;-76
2021/03/17 04:04:14;;;;;;;0.60;0.60;;;;;;;3.51;67.26;99475.09;4401048;32;33774;-77
2021/03/17 04:06:47;;;;;;;0.80;0.80;;;;;;;3.33;68.04;99481.66;4414358;32;34740;-76
2021/03/17 04:09:16;;;;;;;0.60;0.60;;;;;;;3.65;66.90;99477.59;4421100;32;33160;-77
2021/03/17 04:11:43;;;;;;;1.55;1.45;;;;;;;3.55;66.90;99481.81;4388045;32;35776;-76
2021/03/17 04:14:11;;;;;;;1.10;0.88;;;;;;;3.40;67.75;99483.75;4402741;32;33877;-76
2021/03/17 04:17:05;;;;;;;0.85;0.85;;;;;;;3.42;67.42;99491.53;4402750;32;33030;-77
2021/03/17 04:19:33;;;;;;;1.52;1.42;;;;;;;3.34;67.77;99484.16;4403693;32;33484;-77
2021/03/17 04:22:01;;;;;;;;;;;;;;;3.73;66.36;99494.53;4402844;32;35739;-76
2021/03/17 04:24:29;;;;;;;2.53;1.27;;;;;;;3.44;67.20;99490.47;4401089;32;34290;-76
2021/03/17 04:26:57;;;;;;;3.08;1.60;;;;;;;3.91;65.81;99485.31;4400791;32;33071;-76
2021/03/17 04:29:25;;;;;;;0.73;0.73;;;;;;;3.59;66.84;99492.00;4401405;32;33639;-76
2021/03/17 04:31:53;;;;;;;1.33;1.23;;;;;;;3.71;66.25;99493.75;4400603;32;34747;-76
2021/03/17 04:34:20;;;;;;;1.15;1.15;;;;;;;3.79;65.75;99495.88;4400721;32;34181;-76
2021/03/17 04:36:48;;;;;;;1.02;0.98;;;;;;;3.59;66.61;99493.81;4400833;32;33061;-77
2021/03/17 04:39:17;;;;;;;1.35;0.70;;;;;;;3.97;65.30;99494.56;4403302;32;33628;-76
2021/03/17 04:41:45;;;;;;;0.37;0.37;;;;;;;4.07;64.65;99490.31;4412405;32;34784;-76
2021/03/17 04:44:14;;;;;;;1.37;1.27;;;;;;;4.14;64.33;99496.81;4400085;32;35569;-77
2021/03/17 04:46:42;;;;;;;5.10;1.52;;;;;;;4.10;64.31;99490.94;4400214;32;33695;-76
2021/03/17 04:49:09;;;;;;;1.50;1.40;;;;;;;4.32;63.76;99495.44;4403690;32;34036;-76
2021/03/17 04:51:39;;;;;;;0.75;0.75;;;;;;;3.85;65.44;99490.16;4412658;32;36482;-76
2021/03/17 04:54:06;;;;;;;1.35;0.55;;;;;;;3.86;65.49;99486.59;4400311;32;34292;-76
2021/03/17 04:56:34;;;;;;;6.27;1.70;;;;;;;4.13;64.37;99492.47;4387393;32;33815;-77
2021/03/17 04:59:02;;;;;;;1.10;1.08;;;;;;;4.33;63.77;99489.25;4403769;32;33870;-76
2021/03/17 05:01:32;;;;;;;1.83;1.55;;;;;;;3.80;65.61;99487.84;4391986;32;35099;-76
2021/03/17 05:04:01;;;;;;;0.30;0.30;;;;;;;3.70;66.05;99491.25;4400912;32;37821;-76
2021/03/17 05:06:32;;;;;;;0.43;0.43;;;;;;;3.26;67.90;99489.13;4405075;32;34198;-77
2021/03/17 05:09:00;;;;;;;0.75;0.75;;;;;;;3.22;67.96;99481.56;4403723;32;33753;-76
2021/03/17 05:11:28;;;;;;;1.08;1.08;;;;;;;3.57;67.05;99485.16;4399931;32;35196;-76
2021/03/17 05:13:56;;;;;;;2.47;1.10;;;;;;;4.00;65.12;99484.66;4404395;32;35776;-76
2021/03/17 05:16:24;;;;;;;0.98;0.98;;;;;;;3.73;66.16;99477.88;4399927;32;33218;-76
2021/03/17 05:18:52;;;;;;;0.95;0.65;;;;;;;3.53;66.68;99479.31;4400140;32;33386;-76
2021/03/17 05:21:19;;;;;;;1.00;1.00;;;;;;;3.45;67.25;99486.03;4392013;32;35523;-76
2021/03/17 05:23:46;;;;;;;1.40;1.30;;;;;;;3.65;66.46;99488.09;4402494;32;34310;-76
2021/03/17 05:26:14;;;;;;;3.28;1.05;;;;;;;3.84;65.61;99491.97;4405002;32;34370;-76
2021/03/17 05:28:42;;;;;;;2.15;1.00;;;;;;;3.73;65.98;99488.41;4402938;32;33745;-76
2021/03/17 05:31:09;;;;;;;0.55;0.55;;;;;;;3.46;67.07;99493.84;4403001;32;34689;-77
2021/03/17 05:33:37;;;;;;;0.60;0.60;;;;;;;3.81;66.07;99488.69;4407354;32;34777;-76
2021/03/17 05:36:04;;;;;;;1.92;1.83;;;;;;;3.71;66.49;99495.56;4391081;32;34638;-77
2021/03/17 05:38:31;;;;;;;2.05;1.95;;;;;;;3.58;67.06;99492.97;4411237;32;34605;-76
2021/03/17 05:40:59;;;;;;;1.83;1.67;;;;;;;3.48;67.58;99499.81;4403946;32;34910;-76
2021/03/17 05:43:26;;;;;;;2.10;1.40;;;;;;;3.79;66.36;99496.69;4401640;32;34550;-75
2021/03/17 05:45:55;;;;;;;1.33;1.30;;;;;;;3.93;65.88;99488.66;4387520;32;34176;-77
2021/03/17 05:48:25;;;;;;;3.60;1.55;;;;;;;3.77;66.13;99492.53;4402281;32;33079;-77
2021/03/17 05:50:52;;;;;;;;;;;;;;;4.10;65.58;99487.44;4429756;32;35858;-77
2021/03/17 05:53:19;;;;;;;0.73;0.73;;;;;;;3.70;66.92;99486.00;4403603;32;33768;-77
2021/03/17 05:55:48;;;;;;;2.85;2.20;;;;;;;4.11;65.46;99484.72;4401863;32;33287;-77
2021/03/17 05:58:15;;;;;;;1.17;0.93;;;;;;;4.05;65.82;99487.78;4401298;32;32347;-76
2021/03/17 06:00:43;;;;;;;2.17;2.08;;;;;;;4.06;65.66;99488.63;4419499;32;34927;-76
2021/03/17 06:03:12;;;;;;;1.58;1.48;;;;;;;4.13;65.64;99488.06;4417802;32;33611;-76
2021/03/17 06:05:40;;;;;;;0.80;0.80;;;;;;;4.26;64.95;99490.66;4404311;32;33235;-76
2021/03/17 06:08:07;;;;;;;;;;;;;;;4.32;64.23;99498.94;4407083;32;33686;-75
2021/03/17 06:10:35;;;;;;;;;;;;;;;4.00;65.10;99492.56;4405445;32;35204;-77
2021/03/17 06:13:08;;;;;;;0.32;0.32;;;;;;;4.06;65.06;99501.78;4418783;32;34203;-77
2021/03/17 06:15:42;;;;;;;1.95;1.85;;;;;;;4.05;65.07;99500.94;4415796;32;33290;-76
2021/03/17 06:18:42;;;;;;;2.28;2.08;;;;;;;3.75;65.76;99504.91;4402660;32;33586;-76
2021/03/17 06:21:11;;;;;;;1.48;1.40;;;;;;;4.26;64.27;99495.91;4391239;32;33538;-76
2021/03/17 06:23:38;;;;;;;;;;;;;;;3.98;65.34;99490.97;4401640;32;34254;-76
2021/03/17 06:26:06;;;;;;;1.00;0.98;;;;;;;3.85;65.09;99503.31;4406069;32;33347;-76
2021/03/17 06:28:34;;;;;;;1.70;1.60;;;;;;;3.98;65.08;99502.31;4405213;32;32795;-77
2021/03/17 06:31:01;;;;;;;0.30;0.30;;;;;;;3.87;65.20;99509.31;4413550;32;35663;-76
2021/03/17 06:33:28;;;;;;;6.20;1.87;;;;;;;4.22;64.06;99518.97;4415112;32;34232;-76
2021/03/17 06:36:17;;;;;;;0.68;0.68;;;;;;;3.83;65.17;99519.22;4401154;32;33127;-77
2021/03/17 06:38:46;;;;;;;1.60;1.10;;;;;;;4.23;63.79;99515.41;4420058;32;33741;-78
2021/03/17 06:41:18;;;;;;;0.95;0.88;;;;;;;4.35;63.53;99524.22;4408852;32;34213;-77
2021/03/17 06:43:47;;;;;;;2.90;2.62;;;;;;;4.22;64.21;99515.50;4401074;32;34981;-75
2021/03/17 06:46:19;;;;;;;2.10;1.48;;;;;;;4.16;64.28;99515.97;4399333;32;33219;-77
2021/03/17 06:48:59;;;;;;;2.45;1.67;;;;;;;4.20;63.93;99518.25;4414638;32;33628;-76
2021/03/17 06:51:30;;;;;;;2.15;1.95;;;;;;;4.35;63.47;99521.56;4401306;32;34575;-76
2021/03/17 06:53:59;;;;;;;3.67;1.95;;;;;;;4.60;63.38;99527.56;4415438;32;34342;-76
2021/03/17 06:56:33;;;;;;;1.58;1.42;;;;;;;4.81;62.82;99536.47;4400659;32;35750;-76
2021/03/17 06:59:07;;;;;;;1.05;1.05;;;;;;;5.11;61.62;99528.06;4399525;32;34369;-77
2021/03/17 07:01:36;;;;;;;1.70;1.60;;;;;;;5.23;61.73;99527.13;4388512;32;35197;-76
2021/03/17 07:04:08;;;;;;;2.78;2.58;;;;;;;5.43;61.23;99531.69;4399752;32;34267;-75
2021/03/17 07:06:38;;;;;;;2.53;1.75;;;;;;;5.50;61.59;99533.78;4416795;32;34126;-76
2021/03/17 07:09:18;;;;;;;1.67;1.58;;;;;;;5.32;60.69;99536.97;4392478;32;33561;-76
2021/03/17 07:11:47;;;;;;;2.83;2.15;;;;;;;5.82;59.72;99532.09;4419924;32;35698;-76
2021/03/17 07:14:27;;;;;;;3.20;1.73;;;;;;;5.86;59.23;99536.19;4413768;32;34297;-77
2021/03/17 07:16:59;;;;;;;1.95;0.85;;;;;;;6.10;58.69;99529.81;4404015;32;33489;-76
2021/03/17 07:19:42;;;;;;;2.25;2.10;;;;;;;6.25;58.23;99525.91;4406727;32;31959;-77
2021/03/17 07:22:20;;;;;;;0.68;0.68;;;;;;;6.20;58.61;99532.53;4401183;32;34373;-76
2021/03/17 07:25:02;;;;;;;7.25;2.70;;;;;;;6.38;58.02;99526.63;4388673;32;33431;-77
2021/03/17 07:27:33;;;;;;;1.17;1.12;;;;;;;6.60;56.84;99534.47;4421388;32;32938;-76
2021/03/17 07:30:10;;;;;;;2.80;1.52;;;;;;;6.56;57.07;99533.03;4402328;32;32980;-76
2021/03/17 07:33:00;;;;;;;3.15;2.85;;;;;;;6.81;56.05;99530.03;4405497;32;34772;-77
2021/03/17 07:35:32;;;;;;;1.70;1.45;;;;;;;6.70;56.06;99542.50;4391409;32;34942;-76
2021/03/17 07:38:11;;;;;;;4.05;2.62;;;;;;;6.65;56.91;99532.28;4414049;32;32919;-77
2021/03/17 07:40:50;;;;;;;3.05;1.65;;;;;;;6.73;56.55;99544.88;4400677;32;34071;-76
2021/03/17 07:43:18;;;;;;;1.55;1.17;;;;;;;6.74;56.60;99535.97;4416393;32;34606;-77
2021/03/17 07:45:48;;;;;;;3.25;2.92;;;;;;;7.17;54.23;99529.63;4401443;32;34176;-76
2021/03/17 07:48:26;;;;;;;2.30;1.10;;;;;;;7.25;54.69;99536.87;4399879;32;33631;-76
2021/03/17 07:50:55;;;;;;;2.10;1.90;;;;;;;7.56;53.63;99547.38;4415183;32;34372;-77
2021/03/17 07:53:24;;;;;;;2.45;2.25;;;;;;;7.91;53.84;99534.59;4406152;32;35425;-76
2021/03/17 07:55:55;;;;;;;4.18;2.50;;;;;;;7.78;53.10;99539.28;4409285;32;34334;-77
2021/03/17 07:58:22;;;;;;;2.17;2.05;;;;;;;7.62;53.50;99532.78;4402420;32;35178;-76
2021/03/17 08:00:50;;;;;;;3.37;1.70;;;;;;;7.44;54.12;99544.97;4401819;32;33581;-77
2021/03/17 08:03:20;;;;;;;3.30;1.95;;;;;;;7.88;52.88;99534.88;4414927;32;34734;-76
2021/03/17 08:05:47;;;;;;;4.37;2.72;;;;;;;7.39;54.61;99548.00;4399824;32;34971;-77
2021/03/17 08:08:15;;;;;;;1.77;1.37;;;;;;;7.97;53.74;99534.06;4404761;32;34052;-77
2021/03/17 08:11:03;;;;;;;3.78;2.08;;;;;;;7.91;52.62;99539.06;4386527;32;33589;-77
2021/03/17 08:13:35;;;;;;;3.95;3.08;;;;;;;8.01;52.36;99538.13;4402299;32;35991;-76
2021/03/17 08:16:04;;;;;;;3.35;1.70;;;;;;;7.58;53.42;99534.88;4397941;32;33840;-76
2021/03/17 08:18:32;;;;;;;3.12;1.83;;;;;;;7.98;52.91;99546.34;4400968;32;33712;-76
2021/03/17 08:21:01;;;;;;;3.67;2.17;;;;;;;8.30;51.35;99538.25;4418041;32;32967;-76
2021/03/17 08:23:44;;;;;;;3.55;1.75;;;;;;;7.47;52.74;99544.72;4403637;32;33274;-76
2021/03/17 08:26:20;;;;;;;1.98;1.85;;;;;;;7.98;52.52;99548.97;4419804;32;34353;-75
2021/03/17 08:28:51;;;;;;;3.90;2.97;;;;;;;8.10;51.92;99536.50;4417628;32;33585;-76
2021/03/17 08:31:36;;;;;;;3.85;2.60;;;;;;;8.41;50.82;99536.31;4391949;32;35455;-76
2021/03/17 08:34:20;;;;;;;2.75;0.93;;;;;;;8.03;50.86;99533.50;4426779;32;34808;-76
2021/03/17 08:36:54;;;;;;;4.68;4.18;;;;;;;8.26;50.79;99531.50;4403202;32;34606;-75
2021/03/17 08:39:34;;;;;;;3.75;1.83;;;;;;;8.44;50.82;99528.91;4403215;32;32684;-76
2021/03/17 08:42:05;;;;;;;2.53;2.33;;;;;;;8.53;50.47;99527.25;4410144;32;33313;-76
2021/03/17 08:44:39;;;;;;;5.40;2.83;;;;;;;8.19;50.30;99535.72;4419737;32;34911;-76
2021/03/17 08:47:18;;;;;;;3.08;2.87;;;;;;;8.08;50.65;99544.56;4414493;32;33689;-77
2021/03/17 08:49:49;;;;;;;2.90;2.05;;;;;;;7.96;51.28;99534.19;4415897;32;33270;-75
2021/03/17 08:52:30;;;;;;;5.22;3.10;;;;;;;8.13;50.86;99542.31;4413780;32;33690;-75
2021/03/17 08:54:59;;;;;;;2.47;1.48;;;;;;;7.80;52.14;99544.44;4388043;32;33382;-76
2021/03/17 08:57:54;;;;;;;3.47;2.10;;;;;;;8.02;51.51;99531.84;4416850;32;33948;-76
2021/03/17 09:00:44;;;;;;;7.57;2.50;;;;;;;7.75;51.96;99536.87;4417402;32;33118;-77
2021/03/17 09:03:31;;;;;;;1.92;1.55;;;;;;;7.98;50.80;99527.78;4404197;32;32491;-76
2021/03/17 09:06:06;;;;;;;3.70;2.95;;;;;;;7.75;50.91;99526.28;4415050;32;35560;-76
2021/03/17 09:08:53;;;;;;;1.77;1.60;;;;;;;8.07;50.72;99524.34;4401465;32;33791;-76
2021/03/17 09:11:43;;;;;;;2.78;2.45;;;;;;;8.12;50.02;99516.81;4416010;32;33087;-76
2021/03/17 09:14:20;;;;;;;3.95;3.28;;;;;;;7.90;51.03;99524.97;4394756;32;34339;-76
2021/03/17 09:17:07;;;;;;;7.10;1.98;;;;;;;7.87;51.28;99525.25;4404006;32;35502;-75
2021/03/17 09:20:15;;;;;;;2.33;2.12;;;;;;;8.06;51.45;99527.13;4401427;32;34174;-76
2021/03/17 09:22:59;;;;;;;3.87;2.30;;;;;;;8.23;49.99;99526.50;4338518;32;33199;-76
2021/03/17 09:25:28;;;;;;;3.50;2.03;;;;;;;8.31;50.33;99519.53;4338193;32;33325;-75
2021/03/17 09:28:04;;;;;;;3.12;2.83;;;;;;;8.19;50.68;99520.63;4348342;32;34851;-75
2021/03/17 09:30:35;;;;;;;4.37;3.33;;;;;;;8.58;49.42;99512.59;4351312;32;34859;-76
2021/03/17 09:33:11;;;;;;;2.97;2.42;;;;;;;8.87;48.90;99509.94;4348087;32;34047;-75
2021/03/17 09:35:40;;;;;;;2.75;2.08;;;;;;;8.95;47.92;99500.31;4349413;32;33273;-76
2021/03/17 09:38:12;;;;;;;2.58;1.37;;;;;;;9.31;47.36;99504.87;4342018;32;33521;-76
2021/03/17 09:40:43;;;;;;;3.92;2.65;;;;;;;9.39;47.75;99502.34;4342878;32;35807;-76
2021/03/17 09:43:24;;;;;;;3.80;1.77;;;;;;;9.65;47.56;99500.69;4337457;32;32941;-76
2021/03/17 09:45:51;;;;;;;7.47;3.03;;;;;;;9.72;45.91;99507.09;4352185;32;33859;-76
2021/03/17 09:48:19;;;;;;;;;;;;;;;10.15;44.91;99501.19;4330853;32;34228;-76
2021/03/17 09:50:47;;;;;;;;;;;;;;;10.30;47.42;99499.72;4332631;32;35666;-76
2021/03/17 09:53:15;;;;;;;2.85;1.42;;;;;;;10.29;45.11;99495.38;4373038;32;33773;-75
2021/03/17 09:55:43;;;;;;;3.05;1.77;;;;;;;10.45;43.57;99488.41;4397420;32;33666;-76
2021/03/17 09:58:12;;;;;;;2.45;2.03;;;;;;;10.59;42.79;99493.19;4415327;32;35565;-76
2021/03/17 10:00:39;;;;;;;5.15;2.25;;;;;;;10.44;42.50;99488.56;4403390;32;35425;-76
2021/03/17 10:03:12;;;;;;;3.03;1.40;;;;;;;10.58;43.07;99491.53;4416600;32;33050;-76
2021/03/17 10:05:42;;;;;;;1.87;1.67;;;;;;;10.63;43.10;99489.25;4419206;32;33925;-76
2021/03/17 10:08:10;;;;;;;1.92;1.17;;;;;;;10.30;43.09;99484.59;4403848;32;34573;-76
2021/03/17 10:10:37;;;;;;;5.28;1.70;;;;;;;10.70;45.08;99477.03;4392147;32;34221;-77
2021/03/17 10:13:05;;;;;;;2.87;1.62;;;;;;;10.83;42.75;99493.44;4399814;32;34378;-75
2021/03/17 10:15:33;;;;;;;1.40;1.30;;;;;;;11.11;42.90;99480.88;4402387;32;33327;-76
2021/03/17 10:18:00;;;;;;;4.47;2.00;;;;;;;11.35;41.44;99482.69;4409252;32;34448;-76
2021/03/17 10:20:28;;;;;;;2.37;2.17;;;;;;;11.44;41.95;99478.25;4423296;32;35103;-76
2021/03/17 10:23:00;;;;;;;2.40;1.25;;;;;;;11.49;42.27;99490.13;4411217;32;32658;-76
2021/03/17 10:25:29;;;;;;;3.33;2.80;;;;;;;11.39;41.34;99478.72;4411989;32;33874;-76
2021/03/17 10:28:08;;;;;;;1.42;1.15;;;;;;;11.90;40.66;99473.34;4402160;32;36059;-77
2021/03/17 10:30:41;;;;;;;2.37;2.15;;;;;;;11.48;41.64;99482.25;4400432;32;32457;-76
2021/03/17 10:33:14;;;;;;;1.15;1.10;;;;;;;11.49;41.36;99478.59;4401507;32;34945;-76
2021/03/17 10:35:44;;;;;;;3.47;1.73;;;;;;;11.31;41.31;99485.81;4419086;32;35224;-76
2021/03/17 10:38:11;;;;;;;1.30;1.02;;;;;;;11.31;40.87;99472.50;4403290;32;34917;-76
2021/03/17 10:40:39;;;;;;;2.20;1.48;;;;;;;11.04;41.37;99480.63;4413864;32;34224;-76
2021/03/17 10:43:14;;;;;;;6.05;1.40;;;;;;;11.26;41.23;99474.81;4413826;32;33837;-77
2021/03/17 10:45:45;;;;;;;2.12;1.70;;;;;;;10.97;41.40;99479.59;4415809;32;33598;-77
2021/03/17 10:48:20;;;;;;;4.50;3.20;;;;;;;11.41;41.27;99478.56;4392115;32;32300;-77
2021/03/17 10:50:49;;;;;;;2.83;1.92;;;;;;;11.01;41.46;99467.63;4402282;32;32360;-77
2021/03/17 10:53:24;;;;;;;2.80;1.95;;;;;;;11.48;42.29;99474.28;4414285;32;33196;-77
2021/03/17 10:55:53;;;;;;;2.80;2.40;;;;;;;11.65;39.25;99463.56;4425158;32;33369;-76
2021/03/17 10:58:23;;;;;;;4.10;3.25;;;;;;;11.09;41.10;99459.72;4390106;32;34789;-76
2021/03/17 11:00:59;;;;;;;2.33;2.12;;;;;;;11.82;40.71;99461.84;4401629;32;34378;-76
2021/03/17 11:03:30;;;;;;;2.75;2.53;;;;;;;11.38;39.91;99461.09;4414114;32;33201;-76
2021/03/17 11:06:20;;;;;;;2.47;1.60;;;;;;;11.48;39.76;99463.62;4403880;32;33384;-77
2021/03/17 11:09:03;;;;;;;2.20;2.00;;;;;;;11.80;38.58;99466.47;4403425;32;34877;-76
2021/03/17 11:11:30;;;;;;;2.42;1.37;;;;;;;12.01;39.47;99462.41;4400230;32;34337;-76
2021/03/17 11:13:58;;;;;;;2.33;0.88;;;;;;;12.29;37.44;99460.34;4400058;32;33457;-76
2021/03/17 11:16:26;;;;;;;2.67;1.42;;;;;;;12.38;37.59;99454.84;4401114;32;33454;-76
2021/03/17 11:18:56;;;;;;;3.05;1.40;;;;;;;12.40;38.57;99454.69;4409019;32;34296;-77
2021/03/17 11:21:27;;;;;;;3.53;2.12;;;;;;;12.52;37.52;99442.69;4416332;32;34465;-76
2021/03/17 11:23:57;;;;;;;1.60;0.90;;;;;;;12.63;38.40;99443.22;4389500;32;33300;-76
2021/03/17 11:26:30;;;;;;;1.52;1.42;;;;;;;12.76;36.89;99448.88;4413260;32;33152;-77
2021/03/17 11:28:59;;;;;;;1.60;1.50;;;;;;;12.58;36.36;99452.72;4405171;32;33601;-77
2021/03/17 11:31:28;;;;;;;1.77;1.67;;;;;;;11.57;37.56;99449.38;4402093;32;35067;-76
2021/03/17 11:33:55;;;;;;;1.85;1.75;;;;;;;11.95;37.77;99443.56;4403017;32;34177;-77
2021/03/17 11:36:24;;;;;;;1.55;1.48;;;;;;;12.24;36.84;99446.63;4413273;32;34555;-76
2021/03/17 11:38:52;;;;;;;1.35;1.23;;;;;;;12.40;36.03;99446.69;4400367;32;34787;-77
2021/03/17 11:41:22;;;;;;;;;;;;;;;12.75;36.84;99443.72;4403532;32;34073;-76
2021/03/17 11:43:49;;;;;;;4.15;1.83;;;;;;;13.05;35.20;99433.22;4400073;32;33852;-76
2021/03/17 11:46:17;;;;;;;4.07;1.65;;;;;;;13.25;35.16;99433.69;4413189;32;33560;-76
2021/03/17 11:48:45;;;;;;;3.05;2.67;;;;;;;12.63;37.55;99439.69;4399951;32;35643;-76
2021/03/17 11:51:13;;;;;;;;;;;;;;;12.86;36.64;99427.38;4398761;32;35247;-76
2021/03/17 11:53:40;;;;;;;2.05;0.62;;;;;;;13.14;35.87;99428.72;4428487;32;34023;-76
2021/03/17 11:56:07;;;;;;;1.50;1.37;;;;;;;12.83;36.74;99430.37;4388381;32;34279;-76
2021/03/17 11:58:36;;;;;;;1.67;1.42;;;;;;;13.09;34.65;99423.88;4401604;32;36907;-75
2021/03/17 12:01:04;;;;;;;2.03;1.08;;;;;;;12.96;34.41;99422.72;4401441;32;34163;-76
2021/03/17 12:03:37;;;;;;;1.95;1.55;;;;;;;12.80;35.23;99426.19;4418147;32;33471;-76
2021/03/17 12:06:06;;;;;;;1.33;1.23;;;;;;;12.81;34.84;99424.34;4399639;32;33371;-75
2021/03/17 12:08:34;;;;;;;2.20;2.00;;;;;;;12.45;35.75;99428.31;4414137;32;34652;-75